Time;durP1;ratioP1;P1;durP2;ratioP2;P2;SDS_P1;SDS_P2;PMS_P1;PMS_P2;Temp;Humidity;BMP_temperature;BMP_pressure;BME280_temperature;BME280_humidity;BME280_pressure;Samples;Min_cycle;Max_cycle;Signal;HPM_P1;HPM_P2
2023/11/04 00:00:11;;;;;;;0.63;0.50;;;10.10;99.20;;;;;;5105280;28;20033;-88
2023/11/04 00:02:37;;;;;;;1.58;0.77;;;10.10;99.20;;;;;;5105294;28;20054;-88
2023/11/04 00:05:03;;;;;;;0.80;0.52;;;10.20;99.30;;;;;;5095671;28;20028;-88
2023/11/04 00:07:29;;;;;;;1.02;0.52;;;10.20;99.30;;;;;;5077740;28;20020;-87
2023/11/04 00:09:55;;;;;;;0.65;0.50;;;10.20;99.20;;;;;;5075072;28;20097;-88
2023/11/04 00:12:20;;;;;;;0.88;0.55;;;10.20;99.20;;;;;;5093456;28;20395;-89
2023/11/04 00:14:46;;;;;;;1.17;0.65;;;10.20;99.20;;;;;;5073916;28;20120;-87
2023/11/04 00:17:12;;;;;;;1.98;0.60;;;10.30;99.20;;;;;;5071032;28;20035;-87
2023/11/04 00:19:40;;;;;;;1.20;0.80;;;10.30;99.20;;;;;;5075091;28;20028;-88
2023/11/04 00:22:06;;;;;;;0.28;0.25;;;10.30;99.20;;;;;;5073708;28;20021;-87
2023/11/04 00:24:32;;;;;;;0.60;0.50;;;10.30;99.20;;;;;;5089774;28;20028;-88
2023/11/04 00:27:01;;;;;;;1.25;0.80;;;10.30;99.20;;;;;;5093390;28;20118;-88
2023/11/04 00:29:26;;;;;;;0.88;0.60;;;10.30;99.20;;;;;;5094312;28;20059;-88
2023/11/04 00:31:52;;;;;;;0.90;0.50;;;10.30;99.20;;;;;;5077848;28;20488;-89
2023/11/04 00:34:18;;;;;;;0.90;0.57;;;10.30;99.20;;;;;;5086978;28;20360;-88
2023/11/04 00:36:44;;;;;;;2.17;0.65;;;10.30;99.20;;;;;;5094317;28;20455;-88
2023/11/04 00:39:12;;;;;;;0.60;0.50;;;10.30;99.20;;;;;;5093860;28;20028;-88
2023/11/04 00:41:41;;;;;;;0.77;0.60;;;10.40;99.30;;;;;;5082668;28;20082;-88
2023/11/04 00:44:07;;;;;;;0.50;0.40;;;10.40;99.20;;;;;;5076228;28;20028;-88
2023/11/04 00:46:33;;;;;;;0.40;0.40;;;10.40;99.20;;;;;;5092935;28;20085;-87
2023/11/04 00:48:59;;;;;;;1.10;0.50;;;10.40;99.20;;;;;;5075615;28;20051;-87
2023/11/04 00:51:26;;;;;;;0.90;0.50;;;10.50;99.20;;;;;;5093806;28;20032;-88
2023/11/04 00:53:52;;;;;;;0.70;0.50;;;10.40;99.20;;;;;;5076105;28;20088;-88
2023/11/04 00:56:18;;;;;;;0.90;0.50;;;10.40;99.20;;;;;;5093527;28;20103;-87
2023/11/04 00:58:48;;;;;;;1.02;0.60;;;10.50;99.30;;;;;;5072579;28;20025;-90
2023/11/04 01:01:15;;;;;;;0.50;0.50;;;10.50;99.30;;;;;;5085998;28;20025;-88
2023/11/04 01:03:40;;;;;;;0.55;0.55;;;10.50;99.20;;;;;;5057243;28;20024;-89
2023/11/04 01:06:06;;;;;;;2.20;0.70;;;10.50;99.30;;;;;;5092500;28;20386;-87
2023/11/04 01:08:32;;;;;;;1.02;0.50;;;10.50;99.30;;;;;;5089079;28;20036;-88
2023/11/04 01:10:57;;;;;;;1.88;0.55;;;10.50;99.40;;;;;;5056833;28;20028;-87
2023/11/04 01:13:25;;;;;;;0.68;0.60;;;10.50;99.30;;;;;;5073297;28;20115;-88
2023/11/04 01:15:52;;;;;;;1.60;0.60;;;10.50;99.30;;;;;;5073830;28;20482;-89
2023/11/04 01:18:19;;;;;;;1.75;0.60;;;10.50;99.40;;;;;;5078822;28;20022;-88
2023/11/04 01:20:45;;;;;;;1.05;0.70;;;10.50;99.40;;;;;;5091517;28;20074;-87
2023/11/04 01:23:11;;;;;;;1.42;0.52;;;10.50;99.40;;;;;;5073375;28;20438;-89
2023/11/04 01:25:37;;;;;;;0.95;0.75;;;10.50;99.40;;;;;;5091811;28;20054;-87
2023/11/04 01:28:03;;;;;;;1.58;0.93;;;10.50;99.40;;;;;;5092756;28;20043;-87
2023/11/04 01:30:29;;;;;;;2.35;0.68;;;10.60;99.50;;;;;;5097220;28;20027;-88
2023/11/04 01:32:54;;;;;;;1.55;0.65;;;10.60;99.50;;;;;;5098807;28;20251;-88
2023/11/04 01:35:20;;;;;;;1.33;0.95;;;10.60;99.50;;;;;;5100767;28;20020;-88
2023/11/04 01:37:46;;;;;;;0.90;0.70;;;10.60;99.50;;;;;;5110110;28;20024;-88
2023/11/04 01:40:14;;;;;;;1.60;0.60;;;10.60;99.80;;;;;;5085734;28;20023;-90
2023/11/04 01:42:44;;;;;;;0.88;0.55;;;10.70;99.60;;;;;;5100547;28;20096;-87
2023/11/04 01:45:12;;;;;;;1.23;0.70;;;10.60;99.60;;;;;;5086050;28;20016;-87
2023/11/04 01:47:39;;;;;;;1.10;0.60;;;10.70;99.60;;;;;;5091815;28;20055;-88
2023/11/04 01:50:05;;;;;;;1.50;0.50;;;10.70;99.60;;;;;;5077098;28;20127;-87
2023/11/04 01:52:32;;;;;;;1.17;0.60;;;10.70;99.70;;;;;;5068358;28;20384;-89
2023/11/04 01:55:00;;;;;;;1.05;0.50;;;10.70;99.70;;;;;;5097066;28;20085;-88
2023/11/04 01:57:26;;;;;;;1.42;0.80;;;10.70;99.70;;;;;;5094820;28;20480;-87
2023/11/04 01:59:52;;;;;;;1.25;0.80;;;10.80;99.70;;;;;;5097103;28;20035;-87
2023/11/04 02:02:23;;;;;;;0.95;0.70;;;10.80;99.80;;;;;;5083983;28;20413;-88
2023/11/04 02:04:51;;;;;;;1.92;0.75;;;10.80;99.80;;;;;;5096967;28;20380;-87
2023/11/04 02:07:17;;;;;;;1.30;0.70;;;10.80;99.70;;;;;;5097627;28;20074;-89
2023/11/04 02:09:46;;;;;;;2.22;1.35;;;10.80;99.80;;;;;;5096850;28;20028;-87
2023/11/04 02:12:14;;;;;;;1.55;0.90;;;10.80;99.80;;;;;;5096441;28;20048;-87
2023/11/04 02:14:52;;;;;;;0.95;0.70;;;10.80;99.80;;;;;;5085925;28;20032;-88
2023/11/04 02:17:20;;;;;;;2.38;0.95;;;10.90;99.80;;;;;;5096352;28;20028;-88
2023/11/04 02:19:46;;;;;;;1.95;0.85;;;10.90;99.80;;;;;;5096227;28;20479;-88
2023/11/04 02:22:15;;;;;;;1.63;0.88;;;10.90;99.80;;;;;;5096368;28;20039;-87
2023/11/04 02:24:44;;;;;;;1.35;0.57;;;10.90;99.90;;;;;;5095754;28;20042;-88
2023/11/04 02:27:12;;;;;;;1.15;0.80;;;10.80;99.90;;;;;;5093754;28;20063;-87
2023/11/04 02:29:38;;;;;;;0.93;0.80;;;10.90;99.90;;;;;;5075108;28;20033;-89
2023/11/04 02:32:05;;;;;;;1.38;1.00;;;10.90;99.90;;;;;;5086856;28;20483;-87
2023/11/04 02:34:30;;;;;;;1.65;0.70;;;10.90;99.90;;;;;;5086370;28;20510;-87
2023/11/04 02:36:59;;;;;;;0.63;0.63;;;10.90;99.90;;;;;;5086320;28;20099;-88
2023/11/04 02:39:25;;;;;;;1.30;0.70;;;10.90;99.90;;;;;;5092332;28;20036;-88
2023/11/04 02:41:51;;;;;;;1.25;0.70;;;11.00;99.90;;;;;;5095979;28;20379;-87
2023/11/04 02:44:17;;;;;;;1.73;0.80;;;11.00;99.90;;;;;;5094074;28;20028;-87
2023/11/04 02:46:43;;;;;;;1.05;0.90;;;10.90;99.90;;;;;;5093774;28;20486;-87
2023/11/04 02:49:09;;;;;;;1.83;0.80;;;11.00;99.90;;;;;;5085072;28;20040;-88
2023/11/04 02:51:34;;;;;;;1.15;0.85;;;11.00;99.90;;;;;;5097240;28;20356;-88
2023/11/04 02:54:00;;;;;;;0.88;0.70;;;11.00;99.90;;;;;;5096372;28;20031;-87
2023/11/04 02:56:26;;;;;;;1.65;0.95;;;11.00;99.90;;;;;;5065978;28;20043;-88
2023/11/04 02:58:54;;;;;;;1.92;1.00;;;11.00;99.90;;;;;;5076126;28;20039;-87
2023/11/04 03:01:22;;;;;;;1.75;0.88;;;11.00;99.90;;;;;;5082459;28;20023;-88
2023/11/04 03:03:50;;;;;;;3.33;1.60;;;11.00;99.90;;;;;;5077830;28;20057;-87
2023/11/04 03:06:23;;;;;;;3.85;0.90;;;11.10;99.90;;;;;;5100247;28;20016;-87
2023/11/04 03:08:50;;;;;;;2.53;1.00;;;11.10;99.90;;;;;;5116297;28;20028;-88
2023/11/04 03:11:16;;;;;;;1.42;0.93;;;11.10;99.90;;;;;;5109565;28;20020;-87
2023/11/04 03:13:42;;;;;;;1.33;0.93;;;11.10;99.90;;;;;;5117329;28;20024;-88
2023/11/04 03:16:20;;;;;;;2.60;1.20;;;11.10;99.90;;;;;;5105541;28;20047;-87
2023/11/04 03:18:45;;;;;;;1.98;1.00;;;11.10;99.90;;;;;;5103556;28;20024;-87
2023/11/04 03:21:15;;;;;;;3.95;1.20;;;11.10;99.90;;;;;;5096878;28;20042;-88
2023/11/04 03:23:41;;;;;;;2.35;1.20;;;11.10;99.90;;;;;;5095767;28;20020;-88
2023/11/04 03:26:12;;;;;;;3.38;1.38;;;11.10;99.90;;;;;;5078833;28;20036;-88
2023/11/04 03:28:38;;;;;;;3.22;1.35;;;11.10;99.90;;;;;;5079298;28;20056;-89
2023/11/04 03:31:06;;;;;;;3.45;0.95;;;11.10;99.90;;;;;;5075085;28;20060;-88
2023/11/04 03:33:32;;;;;;;2.00;1.00;;;11.10;99.90;;;;;;5074721;28;20361;-88
2023/11/04 03:36:00;;;;;;;2.13;1.10;;;11.10;99.90;;;;;;5092525;28;20008;-88
2023/11/04 03:38:29;;;;;;;2.47;1.10;;;11.10;99.90;;;;;;5061733;28;20486;-89
2023/11/04 03:40:57;;;;;;;2.53;1.10;;;11.10;99.90;;;;;;5095519;28;20028;-88
2023/11/04 03:43:25;;;;;;;2.50;0.88;;;11.10;99.90;;;;;;5061166;28;20028;-89
2023/11/04 03:45:51;;;;;;;1.25;0.90;;;11.10;99.90;;;;;;5069202;28;20024;-89
2023/11/04 03:48:17;;;;;;;1.75;1.15;;;11.10;99.90;;;;;;5069720;28;20484;-89
2023/11/04 03:50:43;;;;;;;1.85;1.10;;;11.10;99.90;;;;;;5079280;28;20023;-89
2023/11/04 03:53:11;;;;;;;1.90;1.05;;;11.20;99.90;;;;;;5094945;28;20480;-87
2023/11/04 03:55:36;;;;;;;2.35;1.17;;;11.10;99.90;;;;;;5094657;28;20126;-88
2023/11/04 03:58:04;;;;;;;1.77;1.23;;;11.10;99.90;;;;;;5095893;28;20070;-88
2023/11/04 04:00:32;;;;;;;1.27;0.98;;;11.10;99.90;;;;;;5074212;28;20107;-87
2023/11/04 04:02:59;;;;;;;1.15;1.00;;;11.20;99.90;;;;;;5073979;28;20025;-87
2023/11/04 04:05:27;;;;;;;1.10;1.00;;;11.20;99.90;;;;;;5075317;28;20391;-88
2023/11/04 04:07:54;;;;;;;3.15;1.15;;;11.20;99.90;;;;;;5086684;28;20024;-88
2023/11/04 04:10:19;;;;;;;1.60;0.93;;;11.20;99.90;;;;;;5094058;28;20056;-87
2023/11/04 04:12:48;;;;;;;1.33;0.95;;;11.20;99.90;;;;;;5094393;28;20510;-86
2023/11/04 04:15:14;;;;;;;1.33;1.00;;;11.20;99.90;;;;;;5077476;28;20020;-87
2023/11/04 04:17:43;;;;;;;1.95;1.30;;;11.20;99.90;;;;;;5094379;28;20111;-88
2023/11/04 04:20:12;;;;;;;2.50;1.30;;;11.20;99.90;;;;;;5091128;28;20028;-87
2023/11/04 04:22:38;;;;;;;1.60;1.00;;;11.20;99.90;;;;;;5090068;28;20034;-87
2023/11/04 04:25:08;;;;;;;3.10;1.58;;;11.20;99.90;;;;;;5057234;28;20025;-87
2023/11/04 04:27:34;;;;;;;0.90;0.80;;;11.10;99.90;;;;;;5075015;28;20029;-87
2023/11/04 04:30:10;;;;;;;2.53;1.20;;;11.20;99.90;;;;;;5083465;28;20399;-87
2023/11/04 04:32:36;;;;;;;1.98;1.15;;;11.10;99.90;;;;;;5094491;28;20437;-88
2023/11/04 04:35:02;;;;;;;2.28;1.33;;;11.10;99.90;;;;;;5076352;28;20024;-87
2023/11/04 04:37:32;;;;;;;2.30;1.02;;;11.20;99.90;;;;;;5074279;28;20073;-88
2023/11/04 04:39:58;;;;;;;1.20;1.02;;;11.20;99.90;;;;;;5082557;28;20046;-85
2023/11/04 04:42:24;;;;;;;2.08;1.02;;;11.10;99.90;;;;;;5097715;28;20009;-89
2023/11/04 04:44:50;;;;;;;2.83;1.10;;;11.10;99.90;;;;;;5097841;28;20008;-86
2023/11/04 04:47:15;;;;;;;2.63;1.25;;;11.10;99.90;;;;;;5111590;28;20024;-89
2023/11/04 04:49:43;;;;;;;1.42;1.20;;;11.10;99.90;;;;;;5113951;28;20043;-88
2023/11/04 04:52:18;;;;;;;1.70;1.27;;;11.10;99.90;;;;;;5094859;28;20020;-87
2023/11/04 04:54:44;;;;;;;1.35;1.10;;;11.10;99.90;;;;;;5090469;28;20028;-87
2023/11/04 04:57:15;;;;;;;1.77;1.17;;;11.10;99.90;;;;;;5089935;28;20032;-88
2023/11/04 04:59:50;;;;;;;4.18;1.48;;;11.10;99.90;;;;;;5093116;28;20111;-87
2023/11/04 05:02:18;;;;;;;1.13;0.95;;;11.10;99.90;;;;;;5068668;28;20028;-87
2023/11/04 05:04:46;;;;;;;1.75;1.25;;;11.10;99.90;;;;;;5073815;28;20040;-86
2023/11/04 05:07:12;;;;;;;2.55;1.40;;;11.10;99.90;;;;;;5093278;28;20032;-87
2023/11/04 05:09:38;;;;;;;1.23;1.10;;;11.10;99.90;;;;;;5094328;28;20040;-87
2023/11/04 05:12:04;;;;;;;2.40;1.20;;;11.10;99.90;;;;;;5093276;28;20021;-87
2023/11/04 05:14:32;;;;;;;2.75;1.23;;;11.10;99.90;;;;;;5080247;28;20020;-87
2023/11/04 05:16:58;;;;;;;4.18;1.55;;;11.10;99.90;;;;;;5080809;28;20109;-87
2023/11/04 05:19:23;;;;;;;2.25;1.30;;;11.10;99.90;;;;;;5073057;28;20468;-88
2023/11/04 05:21:52;;;;;;;1.27;1.13;;;11.10;99.90;;;;;;5086256;28;20028;-87
2023/11/04 05:24:20;;;;;;;1.98;1.23;;;11.10;99.90;;;;;;5093412;28;20089;-88
2023/11/04 05:26:51;;;;;;;2.05;1.23;;;11.10;99.90;;;;;;5092816;28;20027;-87
2023/11/04 05:29:16;;;;;;;1.63;1.10;;;11.10;99.90;;;;;;5088347;28;20115;-87
2023/11/04 05:31:42;;;;;;;1.98;1.30;;;11.10;99.90;;;;;;5072693;28;20056;-87
2023/11/04 05:34:08;;;;;;;2.08;1.30;;;11.10;99.90;;;;;;5056092;28;20029;-86
2023/11/04 05:36:38;;;;;;;2.00;1.20;;;11.20;99.90;;;;;;5084193;28;20025;-87
2023/11/04 05:39:06;;;;;;;2.50;1.13;;;11.10;99.90;;;;;;5093078;28;20103;-88
2023/11/04 05:41:33;;;;;;;2.42;1.20;;;11.10;99.90;;;;;;5088888;28;20023;-86
2023/11/04 05:43:58;;;;;;;1.48;1.27;;;11.10;99.90;;;;;;5072664;28;20028;-86
2023/11/04 05:46:26;;;;;;;2.58;1.25;;;11.10;99.90;;;;;;5072814;28;20021;-87
2023/11/04 05:48:52;;;;;;;3.40;1.52;;;11.10;99.90;;;;;;5073565;28;20098;-88
2023/11/04 05:51:27;;;;;;;2.40;1.38;;;11.10;99.90;;;;;;5073672;28;20448;-86
2023/11/04 05:53:53;;;;;;;2.50;1.67;;;11.10;99.90;;;;;;5098107;28;20119;-87
2023/11/04 05:56:20;;;;;;;3.65;1.42;;;11.10;99.90;;;;;;5092865;28;20158;-87
2023/11/04 05:58:47;;;;;;;3.55;1.30;;;11.20;99.90;;;;;;5092699;28;20024;-87
2023/11/04 06:01:13;;;;;;;2.72;1.48;;;11.20;99.90;;;;;;5091822;28;20099;-87
2023/11/04 06:03:42;;;;;;;3.50;1.98;;;11.20;99.90;;;;;;5074520;28;20112;-88
2023/11/04 06:06:07;;;;;;;1.92;1.23;;;11.20;99.90;;;;;;5073808;28;20460;-86
2023/11/04 06:08:35;;;;;;;4.32;1.42;;;11.20;99.90;;;;;;5055657;28;20037;-86
2023/11/04 06:11:02;;;;;;;3.38;1.50;;;11.30;99.90;;;;;;5073009;28;20056;-87
2023/11/04 06:13:28;;;;;;;2.05;1.60;;;11.30;99.90;;;;;;5081576;28;20017;-88
2023/11/04 06:15:54;;;;;;;2.22;1.33;;;11.20;99.90;;;;;;5093170;28;20058;-87
2023/11/04 06:18:20;;;;;;;1.58;1.02;;;11.30;99.90;;;;;;5112965;28;20024;-87
2023/11/04 06:20:45;;;;;;;2.88;1.80;;;11.30;99.90;;;;;;5109322;28;20032;-87
2023/11/04 06:23:12;;;;;;;2.35;1.38;;;11.30;99.90;;;;;;5101277;28;20013;-85
2023/11/04 06:25:40;;;;;;;3.08;1.30;;;11.30;99.90;;;;;;5099361;28;20074;-88
2023/11/04 06:28:07;;;;;;;3.55;1.40;;;11.30;99.90;;;;;;5097047;28;20016;-86
2023/11/04 06:30:33;;;;;;;2.47;1.33;;;11.30;99.90;;;;;;5096571;28;20035;-87
2023/11/04 06:32:59;;;;;;;2.88;1.45;;;11.30;99.90;;;;;;5092537;28;20021;-87
2023/11/04 06:35:25;;;;;;;2.83;1.50;;;11.30;99.90;;;;;;5081817;28;20019;-86
2023/11/04 06:37:51;;;;;;;3.20;1.55;;;11.30;99.90;;;;;;5068347;28;20482;-86
2023/11/04 06:40:17;;;;;;;4.32;1.55;;;11.30;99.90;;;;;;5079029;28;20024;-87
2023/11/04 06:42:42;;;;;;;4.07;1.50;;;11.30;99.90;;;;;;5096632;28;20035;-86
2023/11/04 06:45:09;;;;;;;4.05;1.70;;;11.30;99.90;;;;;;5095779;28;20455;-86
2023/11/04 06:47:38;;;;;;;3.40;1.50;;;11.30;99.90;;;;;;5066682;28;20059;-87
2023/11/04 06:50:04;;;;;;;4.30;1.58;;;11.30;99.90;;;;;;5059289;28;20033;-86
2023/11/04 06:52:31;;;;;;;3.35;1.58;;;11.30;99.90;;;;;;5064411;28;20043;-87
2023/11/04 06:54:57;;;;;;;2.25;1.35;;;11.30;99.90;;;;;;5094982;28;20032;-87
2023/11/04 06:57:23;;;;;;;4.22;2.00;;;11.30;99.90;;;;;;5078746;28;20024;-87
2023/11/04 06:59:51;;;;;;;2.67;1.60;;;11.30;99.90;;;;;;5094874;28;20073;-87
2023/11/04 07:02:20;;;;;;;4.47;1.85;;;11.30;99.90;;;;;;5078919;28;20467;-86
2023/11/04 07:04:47;;;;;;;3.15;1.60;;;11.30;99.90;;;;;;5089281;28;20130;-87
2023/11/04 07:07:13;;;;;;;3.28;1.55;;;11.30;99.90;;;;;;5076749;28;20029;-87
2023/11/04 07:09:39;;;;;;;2.47;1.30;;;11.30;99.90;;;;;;5095080;28;20024;-88
2023/11/04 07:12:04;;;;;;;3.63;1.80;;;11.30;99.90;;;;;;5094527;28;20071;-87
2023/11/04 07:14:31;;;;;;;2.47;1.35;;;11.30;99.90;;;;;;5075202;28;20025;-87
2023/11/04 07:16:57;;;;;;;3.13;1.33;;;11.30;99.90;;;;;;5075860;28;20157;-87
2023/11/04 07:19:23;;;;;;;3.55;1.75;;;11.40;99.90;;;;;;5091188;28;20063;-86
2023/11/04 07:21:51;;;;;;;2.92;1.30;;;11.30;99.90;;;;;;5080364;28;20032;-87
2023/11/04 07:24:20;;;;;;;4.07;1.40;;;11.30;99.90;;;;;;5094928;28;20020;-86
2023/11/04 07:26:46;;;;;;;4.15;1.50;;;11.30;99.90;;;;;;5094099;28;20142;-86
2023/11/04 07:29:12;;;;;;;3.13;1.60;;;11.30;99.90;;;;;;5094618;28;20060;-87
2023/11/04 07:31:40;;;;;;;4.32;1.80;;;11.30;99.90;;;;;;5077952;28;20475;-87
2023/11/04 07:34:05;;;;;;;2.78;1.40;;;11.30;99.90;;;;;;5094570;28;20486;-86
2023/11/04 07:36:31;;;;;;;3.75;1.20;;;11.30;99.90;;;;;;5077723;28;20032;-86
2023/11/04 07:38:57;;;;;;;4.63;1.70;;;11.30;99.90;;;;;;5084173;28;20036;-87
2023/11/04 07:41:23;;;;;;;3.00;1.52;;;11.30;99.90;;;;;;5074477;28;20025;-87
2023/11/04 07:43:48;;;;;;;5.53;1.52;;;11.30;99.90;;;;;;5075197;28;20032;-86
2023/11/04 07:46:14;;;;;;;3.20;1.67;;;11.30;99.90;;;;;;5075639;28;20506;-86
2023/11/04 07:48:40;;;;;;;4.30;1.50;;;11.30;99.90;;;;;;5070904;28;20056;-86
2023/11/04 07:51:07;;;;;;;2.55;1.42;;;11.30;99.90;;;;;;5078311;28;20028;-86
2023/11/04 07:53:33;;;;;;;2.47;1.35;;;11.30;99.90;;;;;;5081769;28;20013;-89
2023/11/04 07:55:58;;;;;;;3.28;1.70;;;11.20;99.90;;;;;;5098732;28;20031;-87
2023/11/04 07:58:24;;;;;;;2.25;1.08;;;11.20;99.90;;;;;;5099926;28;20036;-86
2023/11/04 08:00:50;;;;;;;3.45;1.20;;;11.30;99.90;;;;;;5080789;28;20115;-87
2023/11/04 08:03:15;;;;;;;4.10;1.33;;;11.30;99.90;;;;;;5094912;28;20029;-87
2023/11/04 08:05:41;;;;;;;2.95;1.35;;;11.30;99.90;;;;;;5094489;28;20042;-87
2023/11/04 08:08:09;;;;;;;2.47;1.20;;;11.30;99.90;;;;;;5093740;28;20039;-86
2023/11/04 08:10:35;;;;;;;1.75;1.05;;;11.30;99.90;;;;;;5076912;28;20127;-86
2023/11/04 08:13:01;;;;;;;1.90;1.38;;;11.40;99.90;;;;;;5094833;28;20028;-86
2023/11/04 08:15:27;;;;;;;2.20;1.10;;;11.40;99.90;;;;;;5093561;28;20016;-86
2023/11/04 08:17:52;;;;;;;3.03;1.05;;;11.40;99.90;;;;;;5092031;28;20097;-86
2023/11/04 08:20:21;;;;;;;2.60;1.10;;;11.40;99.90;;;;;;5093455;28;20505;-86
2023/11/04 08:22:49;;;;;;;1.55;0.90;;;11.40;99.90;;;;;;5093712;28;20474;-88
2023/11/04 08:25:17;;;;;;;1.92;1.13;;;11.40;99.90;;;;;;5093446;28;20028;-87
2023/11/04 08:27:45;;;;;;;1.50;0.80;;;11.40;99.90;;;;;;5075914;28;20043;-86
2023/11/04 08:30:12;;;;;;;2.22;0.93;;;11.50;99.90;;;;;;5094653;28;20024;-87
2023/11/04 08:32:37;;;;;;;3.15;1.02;;;11.50;99.90;;;;;;5094455;28;20020;-86
2023/11/04 08:35:04;;;;;;;2.67;1.30;;;11.50;99.90;;;;;;5076357;28;20479;-88
2023/11/04 08:37:29;;;;;;;3.92;1.58;;;11.50;99.90;;;;;;5072899;28;20034;-86
2023/11/04 08:39:55;;;;;;;2.85;1.05;;;11.50;99.90;;;;;;5073281;28;20044;-87
2023/11/04 08:42:21;;;;;;;2.60;1.10;;;11.60;99.90;;;;;;5088880;28;20023;-86
2023/11/04 08:44:47;;;;;;;2.45;1.00;;;11.60;99.90;;;;;;5076663;28;20166;-87
2023/11/04 08:47:13;;;;;;;2.60;1.02;;;11.60;99.90;;;;;;5092896;28;20474;-87
2023/11/04 08:49:41;;;;;;;1.98;0.68;;;11.60;99.90;;;;;;5093106;28;20115;-87
2023/11/04 08:52:07;;;;;;;0.90;0.63;;;11.60;99.90;;;;;;5076520;28;20046;-87
2023/11/04 08:54:34;;;;;;;1.88;0.80;;;11.60;99.90;;;;;;5081486;28;20025;-86
2023/11/04 08:57:00;;;;;;;3.28;0.73;;;11.70;99.90;;;;;;5072664;28;20017;-86
2023/11/04 08:59:26;;;;;;;2.22;1.02;;;11.60;99.90;;;;;;5056379;28;20036;-86
2023/11/04 09:01:52;;;;;;;1.60;0.70;;;11.70;99.90;;;;;;5091400;28;20024;-89
2023/11/04 09:04:17;;;;;;;1.50;0.65;;;11.70;99.90;;;;;;5076494;28;20028;-86
2023/11/04 09:06:46;;;;;;;2.30;0.88;;;11.70;99.90;;;;;;5093208;28;20024;-87
2023/11/04 09:09:12;;;;;;;3.38;0.88;;;11.70;99.90;;;;;;5085909;28;20041;-86
2023/11/04 09:11:39;;;;;;;3.08;0.75;;;11.80;99.90;;;;;;5090340;28;20423;-87
2023/11/04 09:14:04;;;;;;;2.67;1.10;;;11.80;99.90;;;;;;5076063;28;20077;-87
2023/11/04 09:16:38;;;;;;;1.70;0.70;;;11.80;99.90;;;;;;5076512;28;20468;-86
2023/11/04 09:19:03;;;;;;;1.50;1.00;;;11.90;99.90;;;;;;5079384;28;20032;-87
2023/11/04 09:21:29;;;;;;;1.42;0.90;;;11.90;99.90;;;;;;5073085;28;20518;-88
2023/11/04 09:23:55;;;;;;;1.35;0.82;;;11.90;99.90;;;;;;5074894;28;20025;-88
2023/11/04 09:26:23;;;;;;;3.15;0.88;;;11.90;99.90;;;;;;5097364;28;20021;-87
2023/11/04 09:28:53;;;;;;;2.65;0.90;;;12.00;99.90;;;;;;5097049;28;20032;-87
2023/11/04 09:31:21;;;;;;;2.85;0.70;;;12.00;99.90;;;;;;5096973;28;20023;-88
2023/11/04 09:33:47;;;;;;;3.03;0.70;;;12.00;99.90;;;;;;5113577;28;20032;-88
2023/11/04 09:36:12;;;;;;;2.00;0.80;;;12.00;99.90;;;;;;5079315;28;20089;-87
2023/11/04 09:38:39;;;;;;;2.65;0.75;;;12.10;99.90;;;;;;5091962;28;20384;-87
2023/11/04 09:41:05;;;;;;;1.65;0.50;;;12.10;99.90;;;;;;5092996;28;20020;-87
2023/11/04 09:43:31;;;;;;;2.20;0.65;;;12.20;99.90;;;;;;5093678;28;20028;-86
2023/11/04 09:46:01;;;;;;;2.78;1.33;;;12.20;99.90;;;;;;5092996;28;20024;-87
2023/11/04 09:48:29;;;;;;;1.50;0.85;;;12.30;99.90;;;;;;5092762;28;20074;-87
2023/11/04 09:51:00;;;;;;;2.58;0.80;;;12.30;99.90;;;;;;5096683;28;20073;-88
2023/11/04 09:53:27;;;;;;;;;;;12.40;99.90;;;;;;5097474;28;20107;-87
2023/11/04 09:55:54;;;;;;;1.42;0.90;;;12.30;99.90;;;;;;5081827;28;19969;-88
2023/11/04 09:58:20;;;;;;;1.60;0.80;;;12.40;99.90;;;;;;5076321;28;20013;-87
2023/11/04 10:00:46;;;;;;;0.73;0.55;;;12.40;99.90;;;;;;5082062;28;20027;-87
2023/11/04 10:03:13;;;;;;;2.78;0.60;;;12.40;99.90;;;;;;5079428;28;20024;-88
2023/11/04 10:05:39;;;;;;;1.42;0.55;;;12.40;99.90;;;;;;5096008;28;20028;-87
2023/11/04 10:08:05;;;;;;;0.88;0.65;;;12.50;99.90;;;;;;5096338;28;20027;-87
2023/11/04 10:10:31;;;;;;;1.00;0.65;;;12.50;99.90;;;;;;5095971;28;20024;-87
2023/11/04 10:12:57;;;;;;;2.00;0.80;;;12.50;99.90;;;;;;5093009;28;20361;-87
2023/11/04 10:15:25;;;;;;;1.27;0.70;;;12.50;99.90;;;;;;5095480;28;20103;-87
2023/11/04 10:17:51;;;;;;;0.57;0.50;;;12.50;99.90;;;;;;5082943;28;20020;-88
2023/11/04 10:20:20;;;;;;;1.27;0.70;;;12.60;99.90;;;;;;5076739;28;20494;-89
2023/11/04 10:22:46;;;;;;;2.72;0.70;;;12.60;99.90;;;;;;5077920;28;20031;-87
2023/11/04 10:25:12;;;;;;;1.23;0.60;;;12.60;99.90;;;;;;5092605;28;20040;-87
2023/11/04 10:27:38;;;;;;;1.33;0.60;;;12.60;99.90;;;;;;5096096;28;20479;-88
2023/11/04 10:30:08;;;;;;;2.88;0.65;;;12.60;99.90;;;;;;5081635;28;20035;-88
2023/11/04 10:32:38;;;;;;;1.20;0.60;;;12.60;99.90;;;;;;5075688;28;20463;-88
2023/11/04 10:35:09;;;;;;;1.40;0.70;;;12.60;99.90;;;;;;5092770;28;20020;-87
2023/11/04 10:37:36;;;;;;;1.85;0.50;;;12.60;99.90;;;;;;5095958;28;20019;-87
2023/11/04 10:40:07;;;;;;;1.83;0.50;;;12.70;99.90;;;;;;5075853;28;20028;-86
2023/11/04 10:42:49;;;;;;;1.13;0.50;;;12.70;99.90;;;;;;5092722;28;20103;-87
2023/11/04 10:45:26;;;;;;;0.75;0.50;;;12.70;99.90;;;;;;5080509;28;20035;-87
2023/11/04 10:47:59;;;;;;;0.38;0.30;;;12.70;99.90;;;;;;5095508;28;20044;-87
2023/11/04 10:50:43;;;;;;;1.58;0.95;;;12.70;99.90;;;;;;5095605;28;20081;-88
2023/11/04 10:53:15;;;;;;;0.65;0.43;;;12.70;99.90;;;;;;5093148;28;20016;-88
2023/11/04 10:56:17;;;;;;;1.35;0.55;;;12.70;99.90;;;;;;5081949;28;20047;-87
2023/11/04 10:58:55;;;;;;;0.93;0.65;;;12.70;99.90;;;;;;5078703;28;20040;-87
2023/11/04 11:01:23;;;;;;;1.00;0.60;;;12.70;99.90;;;;;;5093340;28;20020;-87
2023/11/04 11:03:54;;;;;;;1.35;0.75;;;12.70;99.90;;;;;;5098699;28;20029;-87
2023/11/04 11:06:20;;;;;;;0.82;0.60;;;12.80;99.90;;;;;;5099531;28;20016;-86
2023/11/04 11:08:47;;;;;;;1.15;0.43;;;12.80;99.90;;;;;;5101505;28;20043;-89
2023/11/04 11:11:34;;;;;;;0.80;0.20;;;12.80;99.90;;;;;;5090657;28;20108;-88
2023/11/04 11:14:01;;;;;;;1.50;0.63;;;12.80;99.90;;;;;;5093961;28;20017;-87
2023/11/04 11:16:29;;;;;;;1.40;0.40;;;12.80;99.90;;;;;;5089305;28;20046;-87
2023/11/04 11:19:12;;;;;;;0.75;0.40;;;12.80;99.90;;;;;;5075336;28;20081;-87
2023/11/04 11:21:51;;;;;;;1.58;0.30;;;12.70;99.90;;;;;;5086970;28;20028;-88
2023/11/04 11:24:23;;;;;;;0.40;0.30;;;12.70;99.90;;;;;;5095110;28;20051;-87
2023/11/04 11:26:50;;;;;;;0.55;0.30;;;12.70;99.90;;;;;;5096100;28;20093;-87
2023/11/04 11:29:22;;;;;;;2.58;1.00;;;12.70;99.90;;;;;;5096089;28;20525;-88
2023/11/04 11:31:50;;;;;;;1.75;0.20;;;12.70;99.90;;;;;;5095047;28;20027;-87
2023/11/04 11:34:16;;;;;;;0.60;0.60;;;12.70;99.90;;;;;;5095946;28;20053;-88
2023/11/04 11:36:49;;;;;;;4.35;0.70;;;12.70;99.90;;;;;;5094488;28;20097;-87
2023/11/04 11:39:15;;;;;;;0.95;0.50;;;12.70;99.90;;;;;;5084614;28;20024;-87
2023/11/04 11:41:44;;;;;;;0.77;0.30;;;12.70;99.90;;;;;;5077999;28;20479;-88
2023/11/04 11:44:11;;;;;;;0.88;0.40;;;12.70;99.90;;;;;;5077937;28;20032;-87
2023/11/04 11:46:38;;;;;;;0.80;0.43;;;12.70;99.90;;;;;;5076868;28;20052;-88
2023/11/04 11:49:05;;;;;;;0.98;0.52;;;12.70;99.90;;;;;;5075116;28;20128;-88
2023/11/04 11:51:30;;;;;;;1.30;0.50;;;12.70;99.90;;;;;;5085153;28;20016;-87
2023/11/04 11:53:56;;;;;;;1.85;0.47;;;12.70;99.90;;;;;;5094402;28;20028;-87
2023/11/04 11:56:22;;;;;;;1.08;0.50;;;12.70;99.90;;;;;;5073939;28;20450;-86
2023/11/04 11:58:48;;;;;;;0.93;0.50;;;12.70;99.90;;;;;;5073461;28;20361;-87
2023/11/04 12:01:17;;;;;;;1.67;0.60;;;12.70;99.90;;;;;;5085388;28;20050;-87
2023/11/04 12:03:42;;;;;;;1.75;0.60;;;12.60;99.90;;;;;;5095027;28;20043;-88
2023/11/04 12:06:13;;;;;;;0.88;0.50;;;12.60;99.90;;;;;;5094113;28;20476;-88
2023/11/04 12:08:38;;;;;;;1.60;0.52;;;12.60;99.90;;;;;;5093907;28;20027;-88
2023/11/04 12:11:06;;;;;;;2.72;0.90;;;12.60;99.90;;;;;;5094875;28;20028;-87
2023/11/04 12:13:31;;;;;;;2.05;0.90;;;12.60;99.90;;;;;;5073862;28;20027;-89
2023/11/04 12:16:16;;;;;;;3.03;0.60;;;12.50;99.90;;;;;;5074696;28;20027;-88
2023/11/04 12:18:45;;;;;;;1.50;0.60;;;12.50;99.90;;;;;;5082983;28;20020;-89
2023/11/04 12:21:11;;;;;;;1.42;0.65;;;12.50;99.90;;;;;;5095239;28;20444;-87
2023/11/04 12:23:38;;;;;;;1.35;0.50;;;12.50;99.90;;;;;;5094376;28;20118;-89
2023/11/04 12:26:06;;;;;;;1.23;0.45;;;12.50;99.90;;;;;;5076459;28;20027;-88
2023/11/04 12:28:39;;;;;;;1.98;0.70;;;12.50;99.90;;;;;;5073916;28;20040;-90
2023/11/04 12:31:05;;;;;;;3.05;0.63;;;12.50;99.90;;;;;;5071467;28;20048;-89
2023/11/04 12:33:36;;;;;;;1.27;0.80;;;12.40;99.90;;;;;;5094093;28;20024;-88
2023/11/04 12:36:08;;;;;;;0.95;0.40;;;12.40;99.90;;;;;;5094454;28;20062;-89
2023/11/04 12:38:35;;;;;;;1.95;0.70;;;12.40;99.90;;;;;;5094439;28;20035;-88
2023/11/04 12:41:03;;;;;;;2.33;0.70;;;12.40;99.90;;;;;;5098189;28;20019;-88
2023/11/04 12:43:30;;;;;;;1.60;0.77;;;12.30;99.90;;;;;;5117736;28;20020;-90
2023/11/04 12:46:01;;;;;;;1.50;0.60;;;12.30;99.90;;;;;;5097738;28;20091;-87
2023/11/04 12:48:27;;;;;;;1.35;0.57;;;12.30;99.90;;;;;;5117410;28;20048;-90